sensor_id;sensor_type;location;lat;lon;timestamp;P1;durP1;ratioP1;P2;durP2;ratioP2
50585;SDS011;36542;51.700;8.846;2023-09-19T00:01:15;3.97;;;2.80;;
50585;SDS011;36542;51.700;8.846;2023-09-19T00:03:45;5.37;;;3.10;;
50585;SDS011;36542;51.700;8.846;2023-09-19T00:06:10;3.93;;;2.80;;
50585;SDS011;36542;51.700;8.846;2023-09-19T00:08:38;9.47;;;3.30;;
50585;SDS011;36542;51.700;8.846;2023-09-19T00:11:04;6.80;;;3.50;;
50585;SDS011;36542;51.700;8.846;2023-09-19T00:13:31;6.90;;;3.33;;
50585;SDS011;36542;51.700;8.846;2023-09-19T00:15:58;3.83;;;3.37;;
50585;SDS011;36542;51.700;8.846;2023-09-19T00:18:25;5.63;;;3.70;;
50585;SDS011;36542;51.700;8.846;2023-09-19T00:21:00;6.17;;;3.77;;
50585;SDS011;36542;51.700;8.846;2023-09-19T00:23:26;5.33;;;3.63;;
50585;SDS011;36542;51.700;8.846;2023-09-19T00:25:53;6.57;;;3.97;;
50585;SDS011;36542;51.700;8.846;2023-09-19T00:28:22;5.67;;;3.80;;
50585;SDS011;36542;51.700;8.846;2023-09-19T00:30:48;7.77;;;4.17;;
50585;SDS011;36542;51.700;8.846;2023-09-19T00:33:16;7.57;;;4.30;;
50585;SDS011;36542;51.700;8.846;2023-09-19T00:35:47;4.60;;;3.80;;
50585;SDS011;36542;51.700;8.846;2023-09-19T00:38:14;6.17;;;4.47;;
50585;SDS011;36542;51.700;8.846;2023-09-19T00:40:45;8.00;;;4.93;;
50585;SDS011;36542;51.700;8.846;2023-09-19T00:43:11;6.43;;;4.80;;
50585;SDS011;36542;51.700;8.846;2023-09-19T00:45:37;4.67;;;4.03;;
50585;SDS011;36542;51.700;8.846;2023-09-19T00:48:04;5.63;;;4.90;;
50585;SDS011;36542;51.700;8.846;2023-09-19T00:50:33;8.17;;;5.30;;
50585;SDS011;36542;51.700;8.846;2023-09-19T00:53:00;6.70;;;5.50;;
50585;SDS011;36542;51.700;8.846;2023-09-19T00:55:26;5.93;;;5.33;;
50585;SDS011;36542;51.700;8.846;2023-09-19T00:57:55;6.80;;;5.60;;
50585;SDS011;36542;51.700;8.846;2023-09-19T01:00:21;8.43;;;5.83;;
50585;SDS011;36542;51.700;8.846;2023-09-19T01:02:48;7.70;;;5.53;;
50585;SDS011;36542;51.700;8.846;2023-09-19T01:05:14;8.63;;;6.07;;
50585;SDS011;36542;51.700;8.846;2023-09-19T01:07:40;6.93;;;5.97;;
50585;SDS011;36542;51.700;8.846;2023-09-19T01:10:07;6.90;;;5.83;;
50585;SDS011;36542;51.700;8.846;2023-09-19T01:15:21;9.23;;;5.47;;
50585;SDS011;36542;51.700;8.846;2023-09-19T01:23:29;5.93;;;5.00;;
50585;SDS011;36542;51.700;8.846;2023-09-19T01:26:30;8.17;;;5.57;;
50585;SDS011;36542;51.700;8.846;2023-09-19T01:32:05;7.37;;;6.00;;
50585;SDS011;36542;51.700;8.846;2023-09-19T01:37:13;8.63;;;6.13;;
50585;SDS011;36542;51.700;8.846;2023-09-19T01:39:39;6.13;;;5.53;;
50585;SDS011;36542;51.700;8.846;2023-09-19T01:42:09;9.70;;;6.03;;
50585;SDS011;36542;51.700;8.846;2023-09-19T01:47:23;7.10;;;5.60;;
50585;SDS011;36542;51.700;8.846;2023-09-19T01:49:56;7.23;;;5.50;;
50585;SDS011;36542;51.700;8.846;2023-09-19T01:52:30;6.27;;;4.67;;
50585;SDS011;36542;51.700;8.846;2023-09-19T01:55:02;10.87;;;5.17;;
50585;SDS011;36542;51.700;8.846;2023-09-19T01:57:34;6.47;;;4.63;;
50585;SDS011;36542;51.700;8.846;2023-09-19T02:00:15;7.33;;;5.30;;
50585;SDS011;36542;51.700;8.846;2023-09-19T02:02:46;7.03;;;5.40;;
50585;SDS011;36542;51.700;8.846;2023-09-19T02:05:12;11.33;;;5.80;;
50585;SDS011;36542;51.700;8.846;2023-09-19T02:07:46;6.43;;;5.00;;
50585;SDS011;36542;51.700;8.846;2023-09-19T02:10:12;5.47;;;4.70;;
50585;SDS011;36542;51.700;8.846;2023-09-19T02:12:39;8.87;;;4.53;;
50585;SDS011;36542;51.700;8.846;2023-09-19T02:15:04;10.83;;;5.17;;
50585;SDS011;36542;51.700;8.846;2023-09-19T02:17:32;9.27;;;4.23;;
50585;SDS011;36542;51.700;8.846;2023-09-19T02:19:57;6.13;;;3.70;;
50585;SDS011;36542;51.700;8.846;2023-09-19T02:22:25;10.70;;;3.50;;
50585;SDS011;36542;51.700;8.846;2023-09-19T02:24:51;6.47;;;3.80;;
50585;SDS011;36542;51.700;8.846;2023-09-19T02:27:18;8.47;;;3.53;;
50585;SDS011;36542;51.700;8.846;2023-09-19T02:29:44;8.63;;;3.33;;
50585;SDS011;36542;51.700;8.846;2023-09-19T02:32:10;7.67;;;3.53;;
50585;SDS011;36542;51.700;8.846;2023-09-19T02:34:35;7.90;;;3.30;;
50585;SDS011;36542;51.700;8.846;2023-09-19T02:37:07;7.20;;;3.17;;
50585;SDS011;36542;51.700;8.846;2023-09-19T02:39:38;7.93;;;3.43;;
50585;SDS011;36542;51.700;8.846;2023-09-19T02:42:04;7.17;;;3.77;;
50585;SDS011;36542;51.700;8.846;2023-09-19T02:44:30;6.17;;;2.97;;
50585;SDS011;36542;51.700;8.846;2023-09-19T02:46:55;7.67;;;3.40;;
50585;SDS011;36542;51.700;8.846;2023-09-19T02:49:22;9.03;;;3.87;;
50585;SDS011;36542;51.700;8.846;2023-09-19T02:51:48;7.27;;;3.30;;
50585;SDS011;36542;51.700;8.846;2023-09-19T02:54:14;8.57;;;3.67;;
50585;SDS011;36542;51.700;8.846;2023-09-19T02:56:40;8.17;;;3.73;;
50585;SDS011;36542;51.700;8.846;2023-09-19T02:59:06;7.77;;;3.20;;
50585;SDS011;36542;51.700;8.846;2023-09-19T03:01:32;8.17;;;3.50;;
50585;SDS011;36542;51.700;8.846;2023-09-19T03:03:58;7.93;;;3.63;;
50585;SDS011;36542;51.700;8.846;2023-09-19T03:06:24;8.10;;;3.80;;
50585;SDS011;36542;51.700;8.846;2023-09-19T03:08:50;8.07;;;3.10;;
50585;SDS011;36542;51.700;8.846;2023-09-19T03:11:16;9.77;;;3.50;;
50585;SDS011;36542;51.700;8.846;2023-09-19T03:13:46;7.47;;;3.50;;
50585;SDS011;36542;51.700;8.846;2023-09-19T03:16:15;10.33;;;3.83;;
50585;SDS011;36542;51.700;8.846;2023-09-19T03:18:41;9.00;;;3.40;;
50585;SDS011;36542;51.700;8.846;2023-09-19T03:21:07;5.73;;;3.10;;
50585;SDS011;36542;51.700;8.846;2023-09-19T03:23:32;5.07;;;3.30;;
50585;SDS011;36542;51.700;8.846;2023-09-19T03:25:58;9.33;;;3.00;;
50585;SDS011;36542;51.700;8.846;2023-09-19T03:28:24;9.17;;;3.73;;
50585;SDS011;36542;51.700;8.846;2023-09-19T03:31:02;7.17;;;3.47;;
50585;SDS011;36542;51.700;8.846;2023-09-19T03:33:29;6.70;;;3.70;;
50585;SDS011;36542;51.700;8.846;2023-09-19T03:35:58;8.37;;;3.20;;
50585;SDS011;36542;51.700;8.846;2023-09-19T03:38:25;6.27;;;3.20;;
50585;SDS011;36542;51.700;8.846;2023-09-19T03:40:52;7.83;;;3.20;;
50585;SDS011;36542;51.700;8.846;2023-09-19T03:43:17;8.53;;;3.20;;
50585;SDS011;36542;51.700;8.846;2023-09-19T03:45:44;7.00;;;3.27;;
50585;SDS011;36542;51.700;8.846;2023-09-19T03:48:11;14.60;;;4.80;;
50585;SDS011;36542;51.700;8.846;2023-09-19T03:50:37;10.30;;;3.80;;
50585;SDS011;36542;51.700;8.846;2023-09-19T03:53:03;8.07;;;3.10;;
50585;SDS011;36542;51.700;8.846;2023-09-19T03:55:29;9.40;;;3.90;;
50585;SDS011;36542;51.700;8.846;2023-09-19T03:57:57;10.23;;;3.83;;
50585;SDS011;36542;51.700;8.846;2023-09-19T04:00:22;14.83;;;4.40;;
50585;SDS011;36542;51.700;8.846;2023-09-19T04:02:51;9.37;;;3.43;;
50585;SDS011;36542;51.700;8.846;2023-09-19T04:05:17;10.90;;;3.40;;
50585;SDS011;36542;51.700;8.846;2023-09-19T04:07:43;12.43;;;3.60;;
50585;SDS011;36542;51.700;8.846;2023-09-19T04:10:09;11.20;;;3.63;;
50585;SDS011;36542;51.700;8.846;2023-09-19T04:12:36;9.27;;;3.50;;
50585;SDS011;36542;51.700;8.846;2023-09-19T04:15:03;8.13;;;3.23;;
50585;SDS011;36542;51.700;8.846;2023-09-19T04:17:30;10.63;;;3.40;;
50585;SDS011;36542;51.700;8.846;2023-09-19T04:19:58;5.63;;;2.70;;
50585;SDS011;36542;51.700;8.846;2023-09-19T04:22:23;9.53;;;2.83;;
50585;SDS011;36542;51.700;8.846;2023-09-19T04:24:49;6.97;;;3.13;;
50585;SDS011;36542;51.700;8.846;2023-09-19T04:27:14;10.70;;;3.90;;
50585;SDS011;36542;51.700;8.846;2023-09-19T04:29:40;9.73;;;3.13;;
50585;SDS011;36542;51.700;8.846;2023-09-19T04:32:09;12.87;;;3.30;;
50585;SDS011;36542;51.700;8.846;2023-09-19T04:34:35;8.77;;;4.10;;
50585;SDS011;36542;51.700;8.846;2023-09-19T04:37:00;10.37;;;3.30;;
50585;SDS011;36542;51.700;8.846;2023-09-19T04:39:27;8.33;;;2.93;;
50585;SDS011;36542;51.700;8.846;2023-09-19T04:41:53;6.87;;;2.63;;
50585;SDS011;36542;51.700;8.846;2023-09-19T04:44:19;7.60;;;3.27;;
50585;SDS011;36542;51.700;8.846;2023-09-19T04:46:45;12.90;;;3.70;;
50585;SDS011;36542;51.700;8.846;2023-09-19T04:49:11;9.80;;;2.93;;
50585;SDS011;36542;51.700;8.846;2023-09-19T04:51:37;7.13;;;2.90;;
50585;SDS011;36542;51.700;8.846;2023-09-19T04:54:03;6.47;;;3.47;;
50585;SDS011;36542;51.700;8.846;2023-09-19T04:56:29;12.03;;;3.53;;
50585;SDS011;36542;51.700;8.846;2023-09-19T04:58:56;13.87;;;3.03;;
50585;SDS011;36542;51.700;8.846;2023-09-19T05:01:23;12.93;;;3.33;;
50585;SDS011;36542;51.700;8.846;2023-09-19T05:03:49;9.27;;;3.00;;
50585;SDS011;36542;51.700;8.846;2023-09-19T05:06:17;9.33;;;3.00;;
50585;SDS011;36542;51.700;8.846;2023-09-19T05:08:45;9.47;;;2.97;;
50585;SDS011;36542;51.700;8.846;2023-09-19T05:11:14;7.57;;;2.60;;
50585;SDS011;36542;51.700;8.846;2023-09-19T05:13:40;9.80;;;2.87;;
50585;SDS011;36542;51.700;8.846;2023-09-19T05:16:05;11.93;;;3.27;;
50585;SDS011;36542;51.700;8.846;2023-09-19T05:18:31;5.83;;;2.90;;
50585;SDS011;36542;51.700;8.846;2023-09-19T05:20:57;11.17;;;2.67;;
50585;SDS011;36542;51.700;8.846;2023-09-19T05:23:22;8.47;;;3.23;;
50585;SDS011;36542;51.700;8.846;2023-09-19T05:25:48;10.37;;;2.93;;
50585;SDS011;36542;51.700;8.846;2023-09-19T05:28:14;15.40;;;3.37;;
50585;SDS011;36542;51.700;8.846;2023-09-19T05:30:40;11.53;;;3.10;;
50585;SDS011;36542;51.700;8.846;2023-09-19T05:33:08;9.13;;;3.30;;
50585;SDS011;36542;51.700;8.846;2023-09-19T05:35:33;6.97;;;2.63;;
50585;SDS011;36542;51.700;8.846;2023-09-19T05:38:01;12.43;;;3.17;;
50585;SDS011;36542;51.700;8.846;2023-09-19T05:40:27;6.90;;;2.90;;
50585;SDS011;36542;51.700;8.846;2023-09-19T05:42:53;9.60;;;3.30;;
50585;SDS011;36542;51.700;8.846;2023-09-19T05:45:18;12.30;;;2.90;;
50585;SDS011;36542;51.700;8.846;2023-09-19T05:47:47;11.83;;;3.00;;
50585;SDS011;36542;51.700;8.846;2023-09-19T05:50:14;12.03;;;3.13;;
50585;SDS011;36542;51.700;8.846;2023-09-19T05:52:41;13.90;;;3.07;;
50585;SDS011;36542;51.700;8.846;2023-09-19T05:55:08;10.07;;;3.00;;
50585;SDS011;36542;51.700;8.846;2023-09-19T05:57:37;9.97;;;2.50;;
50585;SDS011;36542;51.700;8.846;2023-09-19T06:00:07;14.90;;;3.40;;
50585;SDS011;36542;51.700;8.846;2023-09-19T06:02:39;11.47;;;2.90;;
50585;SDS011;36542;51.700;8.846;2023-09-19T06:05:05;8.87;;;2.50;;
50585;SDS011;36542;51.700;8.846;2023-09-19T06:07:32;7.43;;;2.50;;
50585;SDS011;36542;51.700;8.846;2023-09-19T06:10:02;10.67;;;2.83;;
50585;SDS011;36542;51.700;8.846;2023-09-19T06:12:30;7.10;;;3.07;;
50585;SDS011;36542;51.700;8.846;2023-09-19T06:14:58;10.50;;;2.60;;
50585;SDS011;36542;51.700;8.846;2023-09-19T06:17:24;7.87;;;2.60;;
50585;SDS011;36542;51.700;8.846;2023-09-19T06:19:51;8.13;;;3.03;;
50585;SDS011;36542;51.700;8.846;2023-09-19T06:22:17;5.47;;;2.40;;
50585;SDS011;36542;51.700;8.846;2023-09-19T06:24:43;12.67;;;3.23;;
50585;SDS011;36542;51.700;8.846;2023-09-19T06:27:09;10.13;;;2.60;;
50585;SDS011;36542;51.700;8.846;2023-09-19T06:29:35;9.57;;;3.10;;
50585;SDS011;36542;51.700;8.846;2023-09-19T06:32:05;12.47;;;2.63;;
50585;SDS011;36542;51.700;8.846;2023-09-19T06:34:35;11.50;;;3.17;;
50585;SDS011;36542;51.700;8.846;2023-09-19T06:37:02;12.10;;;2.90;;
50585;SDS011;36542;51.700;8.846;2023-09-19T06:39:28;6.93;;;2.43;;
50585;SDS011;36542;51.700;8.846;2023-09-19T06:41:53;11.30;;;3.20;;
50585;SDS011;36542;51.700;8.846;2023-09-19T06:44:19;9.40;;;2.30;;
50585;SDS011;36542;51.700;8.846;2023-09-19T06:46:49;11.60;;;2.80;;
50585;SDS011;36542;51.700;8.846;2023-09-19T06:49:16;13.20;;;2.83;;
50585;SDS011;36542;51.700;8.846;2023-09-19T06:51:42;8.57;;;2.50;;
50585;SDS011;36542;51.700;8.846;2023-09-19T06:54:08;13.60;;;3.33;;
50585;SDS011;36542;51.700;8.846;2023-09-19T06:56:37;7.83;;;2.63;;
50585;SDS011;36542;51.700;8.846;2023-09-19T06:59:02;7.33;;;2.73;;
50585;SDS011;36542;51.700;8.846;2023-09-19T07:01:30;8.33;;;2.80;;
50585;SDS011;36542;51.700;8.846;2023-09-19T07:03:57;8.10;;;2.50;;
50585;SDS011;36542;51.700;8.846;2023-09-19T07:06:22;11.13;;;2.63;;
50585;SDS011;36542;51.700;8.846;2023-09-19T07:08:49;5.73;;;2.57;;
50585;SDS011;36542;51.700;8.846;2023-09-19T07:11:15;8.17;;;3.27;;
50585;SDS011;36542;51.700;8.846;2023-09-19T07:13:41;8.10;;;2.83;;
50585;SDS011;36542;51.700;8.846;2023-09-19T07:16:08;7.10;;;2.47;;
50585;SDS011;36542;51.700;8.846;2023-09-19T07:18:35;10.47;;;2.60;;
50585;SDS011;36542;51.700;8.846;2023-09-19T07:21:01;7.77;;;2.17;;
50585;SDS011;36542;51.700;8.846;2023-09-19T07:23:29;14.43;;;2.90;;
50585;SDS011;36542;51.700;8.846;2023-09-19T07:26:00;10.43;;;2.83;;
50585;SDS011;36542;51.700;8.846;2023-09-19T07:28:26;11.73;;;2.60;;
50585;SDS011;36542;51.700;8.846;2023-09-19T07:30:51;5.77;;;2.63;;
50585;SDS011;36542;51.700;8.846;2023-09-19T07:33:17;6.83;;;2.20;;
50585;SDS011;36542;51.700;8.846;2023-09-19T07:35:46;7.70;;;3.00;;
50585;SDS011;36542;51.700;8.846;2023-09-19T07:38:12;15.17;;;3.33;;
50585;SDS011;36542;51.700;8.846;2023-09-19T07:40:38;8.53;;;2.90;;
50585;SDS011;36542;51.700;8.846;2023-09-19T07:43:04;10.80;;;2.90;;
50585;SDS011;36542;51.700;8.846;2023-09-19T07:45:31;9.40;;;2.60;;
50585;SDS011;36542;51.700;8.846;2023-09-19T07:47:57;8.23;;;2.23;;
50585;SDS011;36542;51.700;8.846;2023-09-19T07:50:25;7.10;;;2.67;;
50585;SDS011;36542;51.700;8.846;2023-09-19T07:52:51;8.50;;;2.67;;
50585;SDS011;36542;51.700;8.846;2023-09-19T07:55:18;6.67;;;2.87;;
50585;SDS011;36542;51.700;8.846;2023-09-19T07:57:48;6.10;;;2.50;;
50585;SDS011;36542;51.700;8.846;2023-09-19T08:00:14;9.50;;;2.37;;
50585;SDS011;36542;51.700;8.846;2023-09-19T08:02:40;8.93;;;2.40;;
50585;SDS011;36542;51.700;8.846;2023-09-19T08:05:07;8.40;;;2.60;;
50585;SDS011;36542;51.700;8.846;2023-09-19T08:07:37;6.23;;;2.30;;
50585;SDS011;36542;51.700;8.846;2023-09-19T08:10:04;9.73;;;2.80;;
50585;SDS011;36542;51.700;8.846;2023-09-19T08:12:32;8.40;;;2.77;;
50585;SDS011;36542;51.700;8.846;2023-09-19T08:15:00;10.47;;;3.00;;
50585;SDS011;36542;51.700;8.846;2023-09-19T08:17:27;7.57;;;2.57;;
50585;SDS011;36542;51.700;8.846;2023-09-19T08:19:53;5.83;;;2.47;;
50585;SDS011;36542;51.700;8.846;2023-09-19T08:22:19;11.53;;;2.90;;
50585;SDS011;36542;51.700;8.846;2023-09-19T08:24:45;11.33;;;3.00;;
50585;SDS011;36542;51.700;8.846;2023-09-19T08:27:11;8.10;;;2.63;;
50585;SDS011;36542;51.700;8.846;2023-09-19T08:29:37;9.10;;;3.07;;
50585;SDS011;36542;51.700;8.846;2023-09-19T08:32:03;6.53;;;2.50;;
50585;SDS011;36542;51.700;8.846;2023-09-19T08:34:29;9.60;;;2.70;;
50585;SDS011;36542;51.700;8.846;2023-09-19T08:36:57;7.87;;;2.80;;
50585;SDS011;36542;51.700;8.846;2023-09-19T08:39:23;8.67;;;2.87;;
50585;SDS011;36542;51.700;8.846;2023-09-19T08:41:56;7.30;;;2.87;;
50585;SDS011;36542;51.700;8.846;2023-09-19T08:44:23;8.50;;;2.70;;
50585;SDS011;36542;51.700;8.846;2023-09-19T08:46:49;11.93;;;3.00;;
50585;SDS011;36542;51.700;8.846;2023-09-19T08:49:22;6.33;;;2.73;;
50585;SDS011;36542;51.700;8.846;2023-09-19T08:52:00;9.90;;;2.87;;
50585;SDS011;36542;51.700;8.846;2023-09-19T08:54:37;10.80;;;3.03;;
50585;SDS011;36542;51.700;8.846;2023-09-19T08:57:05;11.20;;;3.00;;
50585;SDS011;36542;51.700;8.846;2023-09-19T08:59:39;8.57;;;3.28;;
50585;SDS011;36542;51.700;8.846;2023-09-19T09:02:10;11.43;;;3.13;;
50585;SDS011;36542;51.700;8.846;2023-09-19T09:04:41;12.27;;;3.22;;
50585;SDS011;36542;51.700;8.846;2023-09-19T09:07:11;10.07;;;3.75;;
50585;SDS011;36542;51.700;8.846;2023-09-19T09:09:39;9.47;;;3.50;;
50585;SDS011;36542;51.700;8.846;2023-09-19T09:12:12;14.93;;;3.93;;
50585;SDS011;36542;51.700;8.846;2023-09-19T09:14:39;9.70;;;3.30;;
50585;SDS011;36542;51.700;8.846;2023-09-19T09:17:06;9.97;;;3.43;;
50585;SDS011;36542;51.700;8.846;2023-09-19T09:19:32;10.03;;;3.30;;
50585;SDS011;36542;51.700;8.846;2023-09-19T09:22:07;8.87;;;3.20;;
50585;SDS011;36542;51.700;8.846;2023-09-19T09:24:34;13.40;;;3.50;;
50585;SDS011;36542;51.700;8.846;2023-09-19T09:27:03;8.47;;;3.37;;
50585;SDS011;36542;51.700;8.846;2023-09-19T09:29:45;10.07;;;2.93;;
50585;SDS011;36542;51.700;8.846;2023-09-19T09:32:18;11.82;;;3.40;;
50585;SDS011;36542;51.700;8.846;2023-09-19T09:34:50;7.90;;;3.22;;
50585;SDS011;36542;51.700;8.846;2023-09-19T09:37:17;10.65;;;3.22;;
50585;SDS011;36542;51.700;8.846;2023-09-19T09:39:50;9.93;;;3.42;;
50585;SDS011;36542;51.700;8.846;2023-09-19T09:42:31;8.48;;;2.90;;
50585;SDS011;36542;51.700;8.846;2023-09-19T09:47:58;11.25;;;3.40;;
50585;SDS011;36542;51.700;8.846;2023-09-19T09:50:32;5.25;;;2.90;;
50585;SDS011;36542;51.700;8.846;2023-09-19T09:53:22;8.40;;;2.70;;
50585;SDS011;36542;51.700;8.846;2023-09-19T09:58:36;8.27;;;3.03;;
50585;SDS011;36542;51.700;8.846;2023-09-19T10:01:05;7.20;;;2.83;;
50585;SDS011;36542;51.700;8.846;2023-09-19T10:03:37;9.63;;;2.72;;
50585;SDS011;36542;51.700;8.846;2023-09-19T10:06:12;8.23;;;2.53;;
50585;SDS011;36542;51.700;8.846;2023-09-19T10:11:59;6.90;;;2.40;;
50585;SDS011;36542;51.700;8.846;2023-09-19T10:14:34;6.88;;;2.13;;
50585;SDS011;36542;51.700;8.846;2023-09-19T10:17:04;5.85;;;2.28;;
50585;SDS011;36542;51.700;8.846;2023-09-19T10:20:16;6.82;;;3.03;;
50585;SDS011;36542;51.700;8.846;2023-09-19T10:22:16;9.47;;;2.80;;
50585;SDS011;36542;51.700;8.846;2023-09-19T10:24:47;7.38;;;2.40;;
50585;SDS011;36542;51.700;8.846;2023-09-19T10:27:17;11.98;;;2.72;;
50585;SDS011;36542;51.700;8.846;2023-09-19T10:29:44;5.13;;;2.40;;
50585;SDS011;36542;51.700;8.846;2023-09-19T10:32:15;9.25;;;2.90;;
50585;SDS011;36542;51.700;8.846;2023-09-19T10:34:44;4.35;;;2.30;;
50585;SDS011;36542;51.700;8.846;2023-09-19T10:37:12;6.68;;;2.58;;
50585;SDS011;36542;51.700;8.846;2023-09-19T10:39:39;10.13;;;3.00;;
50585;SDS011;36542;51.700;8.846;2023-09-19T10:42:05;5.68;;;2.42;;
50585;SDS011;36542;51.700;8.846;2023-09-19T10:44:34;6.97;;;2.45;;
50585;SDS011;36542;51.700;8.846;2023-09-19T10:47:08;9.80;;;3.28;;
50585;SDS011;36542;51.700;8.846;2023-09-19T10:49:34;5.60;;;2.83;;
50585;SDS011;36542;51.700;8.846;2023-09-19T10:52:00;8.27;;;2.92;;
50585;SDS011;36542;51.700;8.846;2023-09-19T10:54:28;6.05;;;2.40;;
50585;SDS011;36542;51.700;8.846;2023-09-19T10:56:59;6.45;;;2.63;;
50585;SDS011;36542;51.700;8.846;2023-09-19T10:59:25;8.73;;;2.78;;
50585;SDS011;36542;51.700;8.846;2023-09-19T11:01:59;6.82;;;2.60;;
50585;SDS011;36542;51.700;8.846;2023-09-19T11:04:40;5.45;;;2.72;;
50585;SDS011;36542;51.700;8.846;2023-09-19T11:07:06;7.63;;;2.78;;
50585;SDS011;36542;51.700;8.846;2023-09-19T11:09:46;10.02;;;3.22;;
50585;SDS011;36542;51.700;8.846;2023-09-19T11:15:06;8.93;;;2.78;;
50585;SDS011;36542;51.700;8.846;2023-09-19T11:46:16;8.98;;;2.95;;
50585;SDS011;36542;51.700;8.846;2023-09-19T11:48:47;10.27;;;2.83;;
50585;SDS011;36542;51.700;8.846;2023-09-19T11:51:15;6.32;;;2.75;;
50585;SDS011;36542;51.700;8.846;2023-09-19T11:53:49;9.87;;;3.50;;
50585;SDS011;36542;51.700;8.846;2023-09-19T11:56:16;8.13;;;2.77;;
50585;SDS011;36542;51.700;8.846;2023-09-19T11:58:43;15.75;;;5.10;;
50585;SDS011;36542;51.700;8.846;2023-09-19T12:01:13;13.00;;;2.78;;
50585;SDS011;36542;51.700;8.846;2023-09-19T12:03:42;7.70;;;3.07;;
50585;SDS011;36542;51.700;8.846;2023-09-19T12:06:13;7.60;;;2.65;;
50585;SDS011;36542;51.700;8.846;2023-09-19T12:08:39;6.25;;;2.80;;
50585;SDS011;36542;51.700;8.846;2023-09-19T12:11:14;7.82;;;2.60;;
50585;SDS011;36542;51.700;8.846;2023-09-19T12:13:44;12.15;;;3.15;;
50585;SDS011;36542;51.700;8.846;2023-09-19T12:16:20;17.58;;;3.97;;
50585;SDS011;36542;51.700;8.846;2023-09-19T12:18:47;4.53;;;2.90;;
50585;SDS011;36542;51.700;8.846;2023-09-19T12:21:28;7.33;;;3.00;;
50585;SDS011;36542;51.700;8.846;2023-09-19T12:26:41;7.60;;;2.92;;
50585;SDS011;36542;51.700;8.846;2023-09-19T12:29:15;5.87;;;2.87;;
50585;SDS011;36542;51.700;8.846;2023-09-19T12:34:20;12.60;;;3.30;;
50585;SDS011;36542;51.700;8.846;2023-09-19T12:36:47;5.10;;;2.38;;
50585;SDS011;36542;51.700;8.846;2023-09-19T12:39:23;9.73;;;3.13;;
50585;SDS011;36542;51.700;8.846;2023-09-19T12:41:54;9.43;;;2.90;;
50585;SDS011;36542;51.700;8.846;2023-09-19T12:44:21;8.07;;;2.80;;
50585;SDS011;36542;51.700;8.846;2023-09-19T12:46:49;7.57;;;2.50;;
50585;SDS011;36542;51.700;8.846;2023-09-19T12:49:15;9.10;;;3.00;;
50585;SDS011;36542;51.700;8.846;2023-09-19T12:51:45;6.97;;;2.50;;
50585;SDS011;36542;51.700;8.846;2023-09-19T12:54:12;5.00;;;2.43;;
50585;SDS011;36542;51.700;8.846;2023-09-19T12:56:45;7.10;;;2.90;;
50585;SDS011;36542;51.700;8.846;2023-09-19T12:59:14;7.10;;;2.20;;
50585;SDS011;36542;51.700;8.846;2023-09-19T13:01:41;6.70;;;2.53;;
50585;SDS011;36542;51.700;8.846;2023-09-19T13:04:15;6.77;;;2.30;;
50585;SDS011;36542;51.700;8.846;2023-09-19T13:06:47;5.83;;;2.73;;
50585;SDS011;36542;51.700;8.846;2023-09-19T13:09:14;7.30;;;2.30;;
50585;SDS011;36542;51.700;8.846;2023-09-19T13:11:41;5.50;;;2.40;;
50585;SDS011;36542;51.700;8.846;2023-09-19T13:16:55;8.87;;;2.67;;
50585;SDS011;36542;51.700;8.846;2023-09-19T13:19:38;4.75;;;2.20;;
50585;SDS011;36542;51.700;8.846;2023-09-19T13:22:05;7.65;;;2.75;;
50585;SDS011;36542;51.700;8.846;2023-09-19T13:24:49;7.70;;;2.40;;
50585;SDS011;36542;51.700;8.846;2023-09-19T13:27:16;4.65;;;2.33;;
50585;SDS011;36542;51.700;8.846;2023-09-19T13:29:42;3.90;;;2.20;;
50585;SDS011;36542;51.700;8.846;2023-09-19T13:32:07;9.73;;;2.40;;
50585;SDS011;36542;51.700;8.846;2023-09-19T13:34:36;8.10;;;2.47;;
50585;SDS011;36542;51.700;8.846;2023-09-19T13:37:02;4.50;;;2.20;;
50585;SDS011;36542;51.700;8.846;2023-09-19T13:39:29;3.63;;;2.05;;
50585;SDS011;36542;51.700;8.846;2023-09-19T13:41:55;8.77;;;2.40;;
50585;SDS011;36542;51.700;8.846;2023-09-19T13:44:20;4.23;;;1.90;;
50585;SDS011;36542;51.700;8.846;2023-09-19T13:46:46;7.23;;;2.17;;
50585;SDS011;36542;51.700;8.846;2023-09-19T13:49:11;4.93;;;2.00;;
50585;SDS011;36542;51.700;8.846;2023-09-19T13:51:37;6.43;;;2.27;;
50585;SDS011;36542;51.700;8.846;2023-09-19T13:54:03;3.42;;;1.92;;
50585;SDS011;36542;51.700;8.846;2023-09-19T13:56:28;6.00;;;2.10;;
50585;SDS011;36542;51.700;8.846;2023-09-19T13:58:56;11.97;;;2.77;;
50585;SDS011;36542;51.700;8.846;2023-09-19T14:01:21;4.70;;;2.00;;
50585;SDS011;36542;51.700;8.846;2023-09-19T14:03:47;4.23;;;1.70;;
50585;SDS011;36542;51.700;8.846;2023-09-19T14:06:14;8.47;;;2.10;;
50585;SDS011;36542;51.700;8.846;2023-09-19T14:08:44;7.38;;;2.20;;
50585;SDS011;36542;51.700;8.846;2023-09-19T14:11:12;4.90;;;2.50;;
50585;SDS011;36542;51.700;8.846;2023-09-19T14:13:39;4.73;;;2.27;;
50585;SDS011;36542;51.700;8.846;2023-09-19T14:16:05;6.35;;;2.30;;
50585;SDS011;36542;51.700;8.846;2023-09-19T14:18:33;5.10;;;2.10;;
50585;SDS011;36542;51.700;8.846;2023-09-19T14:21:02;3.90;;;1.95;;
50585;SDS011;36542;51.700;8.846;2023-09-19T14:23:29;5.20;;;2.58;;
50585;SDS011;36542;51.700;8.846;2023-09-19T14:26:00;7.15;;;2.08;;
50585;SDS011;36542;51.700;8.846;2023-09-19T14:28:26;5.38;;;2.28;;
50585;SDS011;36542;51.700;8.846;2023-09-19T14:30:52;3.08;;;1.80;;
50585;SDS011;36542;51.700;8.846;2023-09-19T14:33:17;5.63;;;2.30;;
50585;SDS011;36542;51.700;8.846;2023-09-19T14:35:43;3.65;;;2.15;;
50585;SDS011;36542;51.700;8.846;2023-09-19T14:38:08;6.83;;;2.40;;
50585;SDS011;36542;51.700;8.846;2023-09-19T14:40:34;5.83;;;2.27;;
50585;SDS011;36542;51.700;8.846;2023-09-19T14:43:01;5.33;;;2.17;;
50585;SDS011;36542;51.700;8.846;2023-09-19T14:45:27;6.70;;;2.07;;
50585;SDS011;36542;51.700;8.846;2023-09-19T14:47:53;5.47;;;2.23;;
50585;SDS011;36542;51.700;8.846;2023-09-19T14:50:21;5.93;;;2.00;;
50585;SDS011;36542;51.700;8.846;2023-09-19T14:52:47;5.38;;;2.00;;
50585;SDS011;36542;51.700;8.846;2023-09-19T14:55:14;6.80;;;2.90;;
50585;SDS011;36542;51.700;8.846;2023-09-19T14:57:40;6.30;;;2.37;;
50585;SDS011;36542;51.700;8.846;2023-09-19T15:00:09;5.40;;;2.40;;
50585;SDS011;36542;51.700;8.846;2023-09-19T15:02:37;6.13;;;2.30;;
50585;SDS011;36542;51.700;8.846;2023-09-19T15:05:04;5.77;;;2.57;;
50585;SDS011;36542;51.700;8.846;2023-09-19T15:07:31;4.83;;;2.10;;
50585;SDS011;36542;51.700;8.846;2023-09-19T15:09:57;8.67;;;2.17;;
50585;SDS011;36542;51.700;8.846;2023-09-19T15:12:22;6.00;;;2.30;;
50585;SDS011;36542;51.700;8.846;2023-09-19T15:14:48;4.43;;;2.00;;
50585;SDS011;36542;51.700;8.846;2023-09-19T15:17:13;7.27;;;2.50;;
50585;SDS011;36542;51.700;8.846;2023-09-19T15:19:40;6.77;;;2.20;;
50585;SDS011;36542;51.700;8.846;2023-09-19T15:22:05;5.07;;;2.30;;
50585;SDS011;36542;51.700;8.846;2023-09-19T15:24:31;4.57;;;2.00;;
50585;SDS011;36542;51.700;8.846;2023-09-19T15:26:56;8.00;;;2.40;;
50585;SDS011;36542;51.700;8.846;2023-09-19T15:29:22;8.10;;;2.30;;
50585;SDS011;36542;51.700;8.846;2023-09-19T15:31:48;7.63;;;2.77;;
50585;SDS011;36542;51.700;8.846;2023-09-19T15:34:14;7.43;;;2.53;;
50585;SDS011;36542;51.700;8.846;2023-09-19T15:36:41;7.37;;;2.33;;
50585;SDS011;36542;51.700;8.846;2023-09-19T15:39:07;8.17;;;2.50;;
50585;SDS011;36542;51.700;8.846;2023-09-19T15:41:36;4.93;;;2.30;;
50585;SDS011;36542;51.700;8.846;2023-09-19T15:44:03;7.47;;;2.20;;
50585;SDS011;36542;51.700;8.846;2023-09-19T15:46:30;6.73;;;2.20;;
50585;SDS011;36542;51.700;8.846;2023-09-19T15:48:58;6.80;;;2.70;;
50585;SDS011;36542;51.700;8.846;2023-09-19T15:51:25;5.63;;;1.90;;
50585;SDS011;36542;51.700;8.846;2023-09-19T15:53:52;8.00;;;2.63;;
50585;SDS011;36542;51.700;8.846;2023-09-19T15:56:19;9.97;;;2.60;;